createdAt,value
2019-04-14T00:02:01.114Z,102624.69
2019-04-14T00:04:35.579Z,102620.31
2019-04-14T00:07:05.844Z,102625.31
2019-04-14T00:09:35.850Z,102631.48
2019-04-14T00:12:07.564Z,102627.97
2019-04-14T00:14:38.318Z,102627.48
2019-04-14T00:17:10.725Z,102626.11
2019-04-14T00:19:41.305Z,102625.34
2019-04-14T00:22:11.715Z,102630.98
2019-04-14T00:24:42.426Z,102620.35
2019-04-14T00:27:12.843Z,102619.03
2019-04-14T00:29:45.794Z,102616.45
2019-04-14T00:32:22.709Z,102610.25
2019-04-14T00:35:03.868Z,102613.91
2019-04-14T00:37:40.972Z,102607.20
2019-04-14T00:40:19.329Z,102613.37
2019-04-14T00:43:22.075Z,102611.58
2019-04-14T00:46:00.525Z,102604.97
2019-04-14T00:48:30.146Z,102611.55
2019-04-14T00:51:04.788Z,102609.44
2019-04-14T00:53:36.103Z,102610.34
2019-04-14T00:56:06.195Z,102608.58
2019-04-14T00:58:36.793Z,102610.38
2019-04-14T01:01:07.231Z,102612.55
2019-04-14T01:03:37.339Z,102610.48
2019-04-14T01:06:07.680Z,102611.77
2019-04-14T01:08:40.223Z,102610.82
2019-04-14T01:11:11.750Z,102607.74
2019-04-14T01:13:42.033Z,102611.79
2019-04-14T01:16:17.617Z,102611.81
2019-04-14T01:18:45.170Z,102617.51
2019-04-14T01:21:17.346Z,102608.75
2019-04-14T01:23:48.652Z,102617.54
2019-04-14T01:26:20.286Z,102611.88
2019-04-14T01:28:54.795Z,102614.57
2019-04-14T01:31:25.203Z,102610.66
2019-04-14T01:33:55.535Z,102618.97
2019-04-14T01:36:27.689Z,102615.08
2019-04-14T01:38:58.148Z,102617.70
2019-04-14T01:41:28.201Z,102613.33
2019-04-14T01:43:58.240Z,102611.16
2019-04-14T01:46:32.679Z,102612.91
2019-04-14T01:49:03.192Z,102618.66
2019-04-14T01:51:44.242Z,102620.48
2019-04-14T01:54:36.417Z,102617.84
2019-04-14T01:57:26.357Z,102618.69
2019-04-14T01:59:56.755Z,102620.45
2019-04-14T02:02:27.581Z,102617.82
2019-04-14T02:04:59.631Z,102615.69
2019-04-14T02:07:29.759Z,102624.50
2019-04-14T02:09:59.597Z,102629.76
2019-04-14T02:12:30.250Z,102624.47
2019-04-14T02:15:00.433Z,102629.73
2019-04-14T02:17:30.744Z,102624.02
2019-04-14T02:20:01.229Z,102628.48
2019-04-14T02:22:31.708Z,102619.25
2019-04-14T02:25:03.630Z,102629.84
2019-04-14T02:27:33.984Z,102627.20
2019-04-14T02:30:04.745Z,102633.31
2019-04-14T02:33:05.440Z,102634.17
2019-04-14T02:35:37.191Z,102629.34
2019-04-14T02:38:14.491Z,102628.45
2019-04-14T02:43:12.818Z,102622.34
2019-04-14T02:45:46.175Z,102621.47
2019-04-14T02:48:27.530Z,102621.90
2019-04-14T02:50:48.081Z,102628.05
2019-04-14T02:55:59.452Z,102627.59
2019-04-14T02:58:28.545Z,102628.44
2019-04-14T03:00:58.422Z,102628.79
2019-04-14T03:06:05.652Z,102634.02
2019-04-14T03:16:15.615Z,102633.85
2019-04-14T03:19:20.563Z,102637.36
2019-04-14T03:22:28.977Z,102638.22
2019-04-14T03:25:15.223Z,102643.91
2019-04-14T03:28:14.383Z,102640.01
2019-04-14T03:30:58.855Z,102635.53
2019-04-14T03:36:20.941Z,102640.41
2019-04-14T03:38:21.423Z,102633.34
2019-04-14T03:40:50.717Z,102627.58
2019-04-14T03:43:18.824Z,102635.91
2019-04-14T03:45:55.135Z,102632.38
2019-04-14T03:50:55.647Z,102630.52
2019-04-14T03:53:37.665Z,102626.13
2019-04-14T03:56:14.242Z,102630.90
2019-04-14T03:58:45.004Z,102628.26
2019-04-14T04:01:17.186Z,102626.41
2019-04-14T04:03:50.335Z,102629.14
2019-04-14T04:06:20.358Z,102634.02
2019-04-14T04:08:50.949Z,102637.05
2019-04-14T04:11:23.729Z,102635.34
2019-04-14T04:13:56.422Z,102636.19
2019-04-14T04:16:35.522Z,102636.13
2019-04-14T04:19:15.536Z,102637.03
2019-04-14T04:22:08.559Z,102639.19
2019-04-14T04:24:55.024Z,102627.73
2019-04-14T04:27:46.167Z,102640.09
2019-04-14T04:30:36.811Z,102637.92
2019-04-14T04:33:34.800Z,102638.26
2019-04-14T04:36:11.818Z,102638.26
2019-04-14T04:39:06.681Z,102639.13
2019-04-14T04:41:36.461Z,102649.30
2019-04-14T04:44:07.123Z,102650.98
2019-04-14T04:46:37.350Z,102650.52
2019-04-14T04:49:16.480Z,102646.47
2019-04-14T04:51:42.194Z,102650.37
2019-04-14T04:54:12.531Z,102640.19
2019-04-14T04:56:44.789Z,102644.58
2019-04-14T04:59:15.486Z,102644.58
2019-04-14T05:01:45.203Z,102650.28
2019-04-14T05:04:15.428Z,102643.67
2019-04-14T05:07:03.361Z,102648.45
2019-04-14T05:09:49.103Z,102649.41
2019-04-14T05:12:36.990Z,102654.66
2019-04-14T05:15:29.841Z,102654.23
2019-04-14T05:18:00.434Z,102652.86
2019-04-14T05:20:29.891Z,102652.53
2019-04-14T05:22:59.410Z,102653.81
2019-04-14T05:25:29.722Z,102659.23
2019-04-14T05:28:00.373Z,102665.48
2019-04-14T05:30:30.700Z,102663.20
2019-04-14T05:33:00.982Z,102662.18
2019-04-14T05:35:31.281Z,102652.41
2019-04-14T05:38:02.359Z,102661.24
2019-04-14T05:40:32.146Z,102664.39
2019-04-14T05:43:02.502Z,102668.81
2019-04-14T05:45:32.776Z,102666.09
2019-04-14T05:48:03.266Z,102675.64
2019-04-14T05:50:33.517Z,102671.87
2019-04-14T05:53:04.354Z,102676.56
2019-04-14T05:55:35.093Z,102681.42
2019-04-14T05:58:06.485Z,102676.59
2019-04-14T06:00:36.832Z,102676.36
2019-04-14T06:03:06.304Z,102679.89
2019-04-14T06:05:36.144Z,102680.64
2019-04-14T06:08:05.975Z,102676.56
2019-04-14T06:10:35.576Z,102674.28
2019-04-14T06:13:04.966Z,102675.99
2019-04-14T06:15:35.088Z,102679.38
2019-04-14T06:18:04.469Z,102673.97
2019-04-14T06:20:34.341Z,102677.09
2019-04-14T06:23:03.875Z,102676.70
2019-04-14T06:25:36.202Z,102685.22
2019-04-14T06:28:04.465Z,102681.59
2019-04-14T06:30:52.666Z,102690.86
2019-04-14T06:33:37.878Z,102689.98
2019-04-14T06:36:29.000Z,102694.05
2019-04-14T06:39:07.682Z,102693.95
2019-04-14T06:41:37.066Z,102694.44
2019-04-14T06:44:06.482Z,102696.15
2019-04-14T06:46:35.893Z,102701.90
2019-04-14T06:49:05.395Z,102698.74
2019-04-14T06:51:34.856Z,102702.83
2019-04-14T06:54:04.226Z,102698.81
2019-04-14T06:56:33.624Z,102697.35
2019-04-14T06:59:03.045Z,102701.41
2019-04-14T07:01:32.423Z,102698.65
2019-04-14T07:04:01.808Z,102694.95
2019-04-14T07:06:31.596Z,102698.72
2019-04-14T07:09:00.957Z,102702.53
2019-04-14T07:11:30.365Z,102690.30
2019-04-14T07:13:59.956Z,102699.04
2019-04-14T07:16:29.410Z,102693.66
2019-04-14T07:18:58.785Z,102692.84
2019-04-14T07:21:28.355Z,102696.22
2019-04-14T07:23:58.933Z,102693.64
2019-04-14T07:26:28.376Z,102693.82
2019-04-14T07:28:58.200Z,102696.09
2019-04-14T07:31:40.650Z,102692.33
2019-04-14T07:34:29.693Z,102697.58
2019-04-14T07:37:09.377Z,102695.23
2019-04-14T07:39:47.704Z,102692.19
2019-04-14T07:42:35.968Z,102703.28
2019-04-14T07:45:29.301Z,102699.09
2019-04-14T07:48:04.740Z,102705.50
2019-04-14T07:50:54.934Z,102706.47
2019-04-14T07:53:42.887Z,102704.74
2019-04-14T07:56:38.207Z,102712.44
2019-04-14T07:59:13.844Z,102706.18
2019-04-14T08:02:08.734Z,102709.28
2019-04-14T08:04:42.340Z,102711.47
2019-04-14T08:07:12.626Z,102705.45
2019-04-14T08:09:42.678Z,102704.04
2019-04-14T08:12:12.438Z,102705.38
2019-04-14T08:14:42.468Z,102704.33
2019-04-14T08:17:14.461Z,102712.53
2019-04-14T08:19:44.004Z,102705.73
2019-04-14T08:22:13.656Z,102704.62
2019-04-14T08:24:44.331Z,102702.73
2019-04-14T08:27:13.836Z,102702.40
2019-04-14T08:29:43.261Z,102706.62
2019-04-14T08:32:12.767Z,102704.84
2019-04-14T08:34:42.832Z,102705.41
2019-04-14T08:37:12.766Z,102698.08
2019-04-14T08:39:44.582Z,102714.73
2019-04-14T08:42:49.796Z,102702.73
2019-04-14T08:45:38.386Z,102702.73
2019-04-14T08:48:16.083Z,102710.49
2019-04-14T08:51:01.568Z,102706.14
2019-04-14T08:53:45.475Z,102709.17
2019-04-14T08:56:29.137Z,102707.70
2019-04-14T08:59:07.794Z,102713.09
2019-04-14T09:01:53.765Z,102702.83
2019-04-14T09:04:48.474Z,102710.89
2019-04-14T09:07:28.100Z,102712.36
2019-04-14T09:10:01.702Z,102716.12
2019-04-14T09:12:34.254Z,102718.31
2019-04-14T09:15:04.143Z,102715.64
2019-04-14T09:17:33.547Z,102720.23
2019-04-14T09:20:03.178Z,102724.11
2019-04-14T09:22:32.946Z,102717.03
2019-04-14T09:25:02.738Z,102718.84
2019-04-14T09:27:32.109Z,102718.63
2019-04-14T09:30:01.551Z,102719.46
2019-04-14T09:32:31.337Z,102720.97
2019-04-14T09:35:00.720Z,102720.22
2019-04-14T09:37:30.718Z,102724.39
2019-04-14T09:40:00.314Z,102729.92
2019-04-14T09:42:33.176Z,102728.94
2019-04-14T09:45:02.717Z,102737.84
2019-04-14T09:47:32.326Z,102738.54
2019-04-14T09:50:01.769Z,102737.42
2019-04-14T09:52:31.386Z,102733.59
2019-04-14T09:55:00.891Z,102746.98
2019-04-14T09:57:31.725Z,102738.08
2019-04-14T10:00:01.169Z,102739.95
2019-04-14T10:02:30.574Z,102736.83
2019-04-14T10:05:01.988Z,102745.75
2019-04-14T10:07:31.444Z,102742.47
2019-04-14T10:10:00.938Z,102740.96
2019-04-14T10:12:30.352Z,102740.47
2019-04-14T10:15:00.139Z,102740.16
2019-04-14T10:17:30.575Z,102737.95
2019-04-14T10:20:00.058Z,102740.44
2019-04-14T10:22:34.326Z,102752.14
2019-04-14T10:25:01.591Z,102747.03
2019-04-14T10:27:30.953Z,102752.49
2019-04-14T10:30:00.510Z,102764.77
2019-04-14T10:32:31.351Z,102753.30
2019-04-14T10:35:05.907Z,102760.11
2019-04-14T10:37:36.969Z,102764.02
2019-04-14T10:40:08.086Z,102764.94
2019-04-14T10:42:37.756Z,102762.31
2019-04-14T10:45:08.288Z,102761.23
2019-04-14T10:47:37.930Z,102761.31
2019-04-14T10:50:07.576Z,102757.27
2019-04-14T10:52:37.013Z,102750.73
2019-04-14T10:55:07.858Z,102749.39
2019-04-14T10:57:37.314Z,102750.98
2019-04-14T11:00:12.644Z,102747.47
2019-04-14T11:02:42.865Z,102749.74
2019-04-14T11:05:13.002Z,102750.80
2019-04-14T11:07:42.933Z,102755.47
2019-04-14T11:10:13.196Z,102752.09
2019-04-14T11:12:42.788Z,102751.83
2019-04-14T11:15:15.482Z,102750.36
2019-04-14T11:17:44.736Z,102751.59
2019-04-14T11:20:14.197Z,102755.39
2019-04-14T11:22:43.630Z,102749.33
2019-04-14T11:25:13.017Z,102746.98
2019-04-14T11:27:42.770Z,102752.94
2019-04-14T11:30:19.061Z,102738.30
2019-04-14T11:32:56.385Z,102745.31
2019-04-14T11:35:39.119Z,102747.30
2019-04-14T11:38:33.444Z,102746.27
2019-04-14T11:41:04.890Z,102749.02
2019-04-14T11:43:34.391Z,102753.34
2019-04-14T11:46:04.367Z,102758.48
2019-04-14T11:48:33.926Z,102756.75
2019-04-14T11:51:03.305Z,102754.89
2019-04-14T11:53:32.694Z,102757.62
2019-04-14T11:56:03.048Z,102760.03
2019-04-14T11:58:32.458Z,102760.16
2019-04-14T12:01:39.881Z,102760.27
2019-04-14T12:04:19.370Z,102755.37
2019-04-14T12:07:06.161Z,102762.65
2019-04-14T12:09:38.899Z,102770.97
2019-04-14T12:12:10.637Z,102761.87
2019-04-14T12:14:41.357Z,102759.17
2019-04-14T12:17:14.251Z,102759.17
2019-04-14T12:19:43.620Z,102770.42
2019-04-14T12:22:13.366Z,102766.09
2019-04-14T12:24:45.668Z,102763.27
2019-04-14T12:27:15.044Z,102770.77
2019-04-14T12:29:45.692Z,102767.06
2019-04-14T12:32:15.394Z,102773.52
2019-04-14T12:34:44.975Z,102769.03
2019-04-14T12:37:14.709Z,102775.20
2019-04-14T12:40:02.757Z,102763.52
2019-04-14T12:42:38.905Z,102769.13
2019-04-14T12:45:37.923Z,102769.09
2019-04-14T12:48:22.340Z,102772.70
2019-04-14T12:51:07.597Z,102766.47
2019-04-14T12:53:40.237Z,102760.65
2019-04-14T12:56:09.560Z,102760.39
2019-04-14T12:58:58.025Z,102762.66
2019-04-14T13:01:32.148Z,102757.97
2019-04-14T13:04:02.679Z,102754.05
2019-04-14T13:06:33.674Z,102760.88
2019-04-14T13:09:03.602Z,102756.84
2019-04-14T13:11:36.193Z,102759.63
2019-04-14T13:14:05.839Z,102757.85
2019-04-14T13:16:35.224Z,102762.55
2019-04-14T13:19:05.970Z,102760.84
2019-04-14T13:21:40.466Z,102758.67
2019-04-14T13:24:10.126Z,102754.68
2019-04-14T13:26:42.223Z,102760.74
2019-04-14T13:29:11.894Z,102755.16
2019-04-14T13:31:41.261Z,102760.63
2019-04-14T13:34:10.684Z,102754.42
2019-04-14T13:36:45.143Z,102748.16
2019-04-14T13:39:14.509Z,102756.00
2019-04-14T13:41:43.979Z,102759.94
2019-04-14T13:44:13.870Z,102754.78
2019-04-14T13:46:46.228Z,102756.78
2019-04-14T13:49:15.621Z,102756.83
2019-04-14T13:51:46.931Z,102757.17
2019-04-14T13:54:18.897Z,102760.96
2019-04-14T13:56:54.254Z,102763.71
2019-04-14T13:59:26.973Z,102767.44
2019-04-14T14:01:56.350Z,102758.84
2019-04-14T14:04:28.762Z,102763.67
2019-04-14T14:06:58.167Z,102760.81
2019-04-14T14:09:41.870Z,102760.42
2019-04-14T14:12:39.667Z,102760.33
2019-04-14T14:15:36.926Z,102761.17
2019-04-14T14:18:40.463Z,102759.48
2019-04-14T14:21:33.023Z,102758.66
2019-04-14T14:24:33.192Z,102758.73
2019-04-14T14:27:14.384Z,102754.78
2019-04-14T14:29:43.788Z,102751.84
2019-04-14T14:32:40.714Z,102746.33
2019-04-14T14:35:10.298Z,102753.11
2019-04-14T14:37:39.680Z,102746.10
2019-04-14T14:40:10.496Z,102752.58
2019-04-14T14:42:44.361Z,102749.38
2019-04-14T14:45:40.121Z,102761.03
2019-04-14T14:48:19.846Z,102750.38
2019-04-14T14:50:54.787Z,102752.64
2019-04-14T14:53:24.272Z,102743.52
2019-04-14T14:55:55.461Z,102743.52
2019-04-14T14:58:28.329Z,102750.11
2019-04-14T15:00:59.178Z,102746.95
2019-04-14T15:03:30.520Z,102751.06
2019-04-14T15:06:00.063Z,102749.65
2019-04-14T15:08:29.518Z,102746.41
2019-04-14T15:10:58.930Z,102745.50
2019-04-14T15:13:28.618Z,102745.16
2019-04-14T15:15:59.907Z,102739.48
2019-04-14T15:18:29.298Z,102740.27
2019-04-14T15:20:58.734Z,102738.20
2019-04-14T15:23:28.133Z,102735.15
2019-04-14T15:25:57.511Z,102732.82
2019-04-14T15:28:26.973Z,102731.27
2019-04-14T15:30:56.381Z,102737.77
2019-04-14T15:33:26.786Z,102744.97
2019-04-14T15:35:56.543Z,102752.80
2019-04-14T15:38:25.918Z,102742.73
2019-04-14T15:40:55.506Z,102748.84
2019-04-14T15:43:24.995Z,102744.07
2019-04-14T15:45:54.372Z,102749.24
2019-04-14T15:48:23.774Z,102751.08
2019-04-14T15:50:53.320Z,102750.74
2019-04-14T15:53:22.727Z,102742.03
2019-04-14T15:55:52.141Z,102745.14
2019-04-14T15:58:48.367Z,102754.02
2019-04-14T16:01:51.999Z,102752.48
2019-04-14T16:04:52.540Z,102755.50
2019-04-14T16:07:30.945Z,102751.31
2019-04-14T16:10:22.386Z,102755.89
2019-04-14T16:13:09.355Z,102754.66
2019-04-14T16:16:01.313Z,102754.87
2019-04-14T16:18:48.282Z,102746.84
2019-04-14T16:21:17.766Z,102748.96
2019-04-14T16:23:50.601Z,102749.94
2019-04-14T16:26:23.340Z,102749.09
2019-04-14T16:29:02.645Z,102751.98
2019-04-14T16:31:47.267Z,102752.09
2019-04-14T16:34:38.944Z,102759.25
2019-04-14T16:37:10.132Z,102755.35
2019-04-14T16:39:39.534Z,102752.88
2019-04-14T16:42:09.009Z,102746.32
2019-04-14T16:44:38.558Z,102748.26
2019-04-14T16:47:09.467Z,102751.12
2019-04-14T16:49:40.144Z,102756.89
2019-04-14T16:52:32.445Z,102754.23
2019-04-14T16:55:33.393Z,102756.29
2019-04-14T16:58:25.242Z,102758.66
2019-04-14T17:01:00.111Z,102759.48
2019-04-14T17:03:32.121Z,102759.98
2019-04-14T17:06:03.347Z,102760.57
2019-04-14T17:08:33.082Z,102760.57
2019-04-14T17:11:04.994Z,102755.86
2019-04-14T17:13:37.135Z,102762.47
2019-04-14T17:16:23.676Z,102769.13
2019-04-14T17:19:16.288Z,102767.98
2019-04-14T17:21:55.405Z,102774.84
2019-04-14T17:24:49.557Z,102778.31
2019-04-14T17:27:45.855Z,102781.81
2019-04-14T17:30:24.695Z,102774.00
2019-04-14T17:33:12.093Z,102778.30
2019-04-14T17:35:49.868Z,102781.98
2019-04-14T17:38:41.120Z,102785.02
2019-04-14T17:41:29.389Z,102779.02
2019-04-14T17:44:03.833Z,102786.97
2019-04-14T17:46:50.829Z,102784.88
2019-04-14T17:49:42.048Z,102786.03
2019-04-14T17:52:45.744Z,102786.59
2019-04-14T17:55:33.061Z,102791.44
2019-04-14T17:58:08.908Z,102803.25
2019-04-14T18:01:06.986Z,102805.08
2019-04-14T18:04:07.456Z,102811.52
2019-04-14T18:06:47.294Z,102805.80
2019-04-14T18:09:39.685Z,102819.82
2019-04-14T18:12:26.567Z,102819.22
2019-04-14T18:15:06.607Z,102816.84
2019-04-14T18:18:12.046Z,102820.10
2019-04-14T18:20:44.445Z,102823.32
2019-04-14T18:23:13.809Z,102821.31
2019-04-14T18:25:43.691Z,102824.78
2019-04-14T18:28:35.530Z,102818.02
2019-04-14T18:31:19.995Z,102827.28
2019-04-14T18:34:12.304Z,102826.47
2019-04-14T18:37:00.293Z,102822.31
2019-04-14T18:39:54.683Z,102825.71
2019-04-14T18:42:43.101Z,102831.59
2019-04-14T18:45:47.872Z,102831.95
2019-04-14T18:48:40.132Z,102839.25
2019-04-14T18:51:31.469Z,102843.28
2019-04-14T18:57:18.928Z,102854.41
2019-04-14T19:00:01.334Z,102853.23
2019-04-14T19:02:30.824Z,102855.30
2019-04-14T19:05:00.175Z,102858.59
2019-04-14T19:07:32.778Z,102866.64
2019-04-14T19:10:05.111Z,102862.91
2019-04-14T19:12:40.696Z,102869.52
2019-04-14T19:15:21.908Z,102875.11
2019-04-14T19:17:58.244Z,102870.00
2019-04-14T19:20:27.748Z,102874.88
2019-04-14T19:22:58.234Z,102875.57
2019-04-14T19:25:28.905Z,102884.71
2019-04-14T19:28:00.092Z,102885.92
2019-04-14T19:30:29.653Z,102890.53
2019-04-14T19:32:59.097Z,102883.63
2019-04-14T19:35:28.614Z,102890.09
2019-04-14T19:37:58.115Z,102884.31
2019-04-14T19:40:29.705Z,102897.31
2019-04-14T19:43:00.544Z,102891.51
2019-04-14T19:45:31.415Z,102894.41
2019-04-14T19:48:00.956Z,102891.74
2019-04-14T19:50:32.267Z,102892.15
2019-04-14T19:53:01.770Z,102899.00
2019-04-14T19:55:32.685Z,102897.31
2019-04-14T19:58:02.211Z,102901.86
2019-04-14T20:00:33.489Z,102913.36
2019-04-14T20:03:04.212Z,102908.92
2019-04-14T20:05:33.670Z,102902.91
2019-04-14T20:08:04.565Z,102907.23
2019-04-14T20:10:34.148Z,102908.23
2019-04-14T20:13:04.708Z,102907.84
2019-04-14T20:15:39.750Z,102907.91
2019-04-14T20:18:14.784Z,102908.64
2019-04-14T20:21:00.276Z,102908.48
2019-04-14T20:23:40.400Z,102904.45
2019-04-14T20:26:25.746Z,102909.97
2019-04-14T20:29:03.208Z,102904.16
2019-04-14T20:31:40.432Z,102906.95
2019-04-14T20:34:11.180Z,102901.91
2019-04-14T20:36:43.311Z,102898.52
2019-04-14T20:39:15.813Z,102912.22
2019-04-14T20:41:45.353Z,102911.06
2019-04-14T20:44:15.465Z,102912.03
2019-04-14T20:46:45.497Z,102914.85
2019-04-14T20:49:15.206Z,102915.53
2019-04-14T20:51:45.289Z,102913.36
2019-04-14T20:54:15.244Z,102920.94
2019-04-14T20:56:46.589Z,102914.57
2019-04-14T20:59:18.037Z,102911.91
2019-04-14T21:01:58.956Z,102921.90
2019-04-14T21:04:36.506Z,102915.20
2019-04-14T21:07:30.901Z,102927.55
2019-04-14T21:10:08.502Z,102932.55
2019-04-14T21:12:53.440Z,102922.23
2019-04-14T21:15:34.032Z,102926.10
2019-04-14T21:18:16.083Z,102925.89
2019-04-14T21:21:10.110Z,102925.89
2019-04-14T21:24:12.543Z,102930.00
2019-04-14T21:26:49.395Z,102922.16
2019-04-14T21:29:40.632Z,102927.78
2019-04-14T21:32:20.739Z,102930.63
2019-04-14T21:35:11.942Z,102923.94
2019-04-14T21:37:57.894Z,102931.55
2019-04-14T21:40:41.564Z,102925.23
2019-04-14T21:43:11.349Z,102934.02
2019-04-14T21:45:40.691Z,102931.87
2019-04-14T21:48:10.077Z,102929.81
2019-04-14T21:50:39.813Z,102942.64
2019-04-14T21:53:09.215Z,102941.71
2019-04-14T21:55:38.654Z,102942.75
2019-04-14T21:58:32.970Z,102949.84
2019-04-14T22:01:50.199Z,102945.52
2019-04-14T22:04:38.395Z,102947.36
2019-04-14T22:07:20.723Z,102949.39
2019-04-14T22:09:50.613Z,102953.90
2019-04-14T22:12:20.512Z,102952.13
2019-04-14T22:14:49.921Z,102959.70
2019-04-14T22:17:19.400Z,102962.42
2019-04-14T22:19:48.845Z,102957.95
2019-04-14T22:22:20.345Z,102964.38
2019-04-14T22:24:49.743Z,102970.74
2019-04-14T22:27:19.325Z,102969.11
2019-04-14T22:29:48.712Z,102967.27
2019-04-14T22:32:21.035Z,102969.92
2019-04-14T22:34:50.852Z,102974.19
2019-04-14T22:37:20.266Z,102976.88
2019-04-14T22:39:49.679Z,102982.34
2019-04-14T22:42:19.186Z,102980.70
2019-04-14T22:44:48.583Z,102989.05
2019-04-14T22:47:18.013Z,102991.88
2019-04-14T22:49:47.523Z,102993.05
2019-04-14T22:52:16.949Z,102997.03
2019-04-14T22:54:46.339Z,103000.27
2019-04-14T22:57:16.248Z,102997.30
2019-04-14T22:59:45.662Z,103001.89
2019-04-14T23:02:35.708Z,103013.98
2019-04-14T23:05:23.165Z,103010.05
2019-04-14T23:08:19.150Z,103010.59
2019-04-14T23:11:12.384Z,103004.94
2019-04-14T23:13:49.682Z,103010.28
2019-04-14T23:16:32.653Z,103017.34
2019-04-14T23:19:07.491Z,103011.67
2019-04-14T23:21:41.414Z,103014.36
2019-04-14T23:24:20.040Z,103010.63
2019-04-14T23:26:52.811Z,103013.25
2019-04-14T23:29:22.546Z,103007.24
2019-04-14T23:31:52.052Z,103009.07
2019-04-14T23:34:24.030Z,103014.16
2019-04-14T23:36:53.427Z,103011.86
2019-04-14T23:39:24.107Z,103015.08
2019-04-14T23:41:53.777Z,103015.88
2019-04-14T23:44:23.166Z,103015.52
2019-04-14T23:46:52.588Z,103015.99
2019-04-14T23:49:22.142Z,103016.58
2019-04-14T23:51:51.531Z,103018.30
2019-04-14T23:54:21.017Z,103013.06
2019-04-14T23:57:04.758Z,103016.72
2019-04-14T23:59:25.022Z,103016.55
